createdAt,value
2023-05-17T00:00:10.252Z,3.50
2023-05-17T00:05:32.144Z,2.40
2023-05-17T00:10:34.161Z,3.10
2023-05-17T00:15:36.208Z,2.70
2023-05-17T00:20:38.388Z,3.20
2023-05-17T00:25:40.778Z,3.20
2023-05-17T00:30:43.686Z,3.20
2023-05-17T00:35:45.867Z,3.20
2023-05-17T00:40:50.305Z,3.30
2023-05-17T00:45:52.387Z,3.40
2023-05-17T00:50:56.103Z,3.10
2023-05-17T00:55:58.289Z,3.90
2023-05-17T01:01:01.513Z,2.70
2023-05-17T01:06:05.996Z,2.50
2023-05-17T01:11:22.148Z,3.30
2023-05-17T01:16:40.346Z,3.30
2023-05-17T01:21:51.394Z,3.40
2023-05-17T01:26:55.312Z,3.40
2023-05-17T01:31:59.580Z,3.10
2023-05-17T01:37:01.624Z,3.30
2023-05-17T01:42:41.079Z,3.10
2023-05-17T01:47:53.226Z,3.90
2023-05-17T01:53:22.017Z,3.60
2023-05-17T01:58:26.179Z,3.10
2023-05-17T02:08:31.437Z,3.60
2023-05-17T02:13:33.593Z,3.30
2023-05-17T02:18:37.469Z,3.30
2023-05-17T02:28:41.884Z,3.50
2023-05-17T02:33:44.023Z,3.90
2023-05-17T02:38:46.244Z,3.70
2023-05-17T02:43:48.322Z,3.00
2023-05-17T02:48:50.340Z,3.00
2023-05-17T02:53:52.397Z,3.00
2023-05-17T02:58:57.105Z,3.00
2023-05-17T03:03:59.377Z,3.00
2023-05-17T03:09:01.707Z,3.30
2023-05-17T03:14:03.933Z,3.50
2023-05-17T03:19:06.444Z,3.20
2023-05-17T03:24:09.032Z,2.30
2023-05-17T03:29:11.615Z,2.60
2023-05-17T03:34:13.896Z,2.60
2023-05-17T03:39:16.083Z,3.00
2023-05-17T03:44:18.162Z,2.30
2023-05-17T03:49:20.660Z,3.00
2023-05-17T03:54:22.854Z,2.60
2023-05-17T03:59:25.129Z,2.80
2023-05-17T04:04:27.427Z,2.60
2023-05-17T04:09:31.738Z,2.70
2023-05-17T04:14:33.747Z,2.60
2023-05-17T04:19:36.086Z,2.80
2023-05-17T04:24:38.307Z,2.60
2023-05-17T04:29:40.945Z,2.40
2023-05-17T04:34:43.086Z,2.70
2023-05-17T04:39:45.180Z,2.20
2023-05-17T04:44:47.248Z,2.50
2023-05-17T04:49:51.173Z,2.70
2023-05-17T04:54:53.459Z,2.90
2023-05-17T04:59:55.655Z,2.60
2023-05-17T05:04:58.073Z,2.60
2023-05-17T05:10:02.517Z,3.10
2023-05-17T05:15:05.935Z,2.70
2023-05-17T05:20:09.673Z,3.60
2023-05-17T05:25:11.886Z,2.90
2023-05-17T05:30:21.549Z,2.20
2023-05-17T05:35:30.193Z,3.10
2023-05-17T05:40:33.216Z,2.80
2023-05-17T05:45:35.583Z,2.70
2023-05-17T05:50:38.377Z,2.60
2023-05-17T05:55:42.115Z,2.30
2023-05-17T06:00:44.382Z,3.60
2023-05-17T06:05:46.616Z,2.40
2023-05-17T06:10:48.958Z,2.70
2023-05-17T06:15:51.159Z,2.60
2023-05-17T06:20:53.582Z,3.80
2023-05-17T06:25:55.932Z,2.60
2023-05-17T06:30:58.523Z,3.50
2023-05-17T06:41:07.797Z,3.80
2023-05-17T06:46:09.992Z,3.60
2023-05-17T06:51:12.371Z,3.30
2023-05-17T06:56:15.574Z,3.60
2023-05-17T07:01:18.477Z,3.60
2023-05-17T07:06:20.973Z,3.80
2023-05-17T07:11:23.154Z,3.50
2023-05-17T07:16:25.335Z,3.70
2023-05-17T07:21:28.043Z,2.90
2023-05-17T07:26:30.632Z,2.70
2023-05-17T07:31:32.921Z,4.00
2023-05-17T07:36:35.242Z,3.40
2023-05-17T07:41:37.600Z,3.80
2023-05-17T07:46:39.814Z,2.70
2023-05-17T07:51:42.065Z,2.60
2023-05-17T07:56:44.251Z,3.70
2023-05-17T08:01:46.451Z,3.10
2023-05-17T08:06:49.751Z,3.10
2023-05-17T08:11:51.934Z,3.10
2023-05-17T08:16:54.118Z,2.90
2023-05-17T08:21:56.707Z,3.20
2023-05-17T08:26:58.994Z,2.90
2023-05-17T08:32:04.047Z,2.20
2023-05-17T08:37:06.313Z,1.80
2023-05-17T08:42:08.730Z,2.10
2023-05-17T08:47:12.139Z,1.70
2023-05-17T08:52:15.342Z,1.30
2023-05-17T08:57:49.883Z,1.80
2023-05-17T09:02:52.136Z,1.50
2023-05-17T09:07:56.094Z,1.80
2023-05-17T09:12:58.176Z,1.90
2023-05-17T09:18:00.552Z,1.50
2023-05-17T09:23:04.181Z,2.60
2023-05-17T09:33:15.267Z,2.90
2023-05-17T09:38:28.366Z,2.30
2023-05-17T09:43:30.660Z,2.00
2023-05-17T09:48:32.999Z,1.90
2023-05-17T09:53:40.335Z,2.00
2023-05-17T09:58:42.520Z,2.10
2023-05-17T10:03:45.347Z,2.40
2023-05-17T10:08:53.965Z,2.20
2023-05-17T10:14:22.157Z,2.70
2023-05-17T10:19:25.795Z,2.70
2023-05-17T10:24:30.390Z,2.20
2023-05-17T10:29:34.335Z,2.70
2023-05-17T10:34:38.880Z,2.70
2023-05-17T10:39:43.310Z,2.70
2023-05-17T10:44:45.907Z,2.90
2023-05-17T10:49:51.158Z,3.20
2023-05-17T10:54:55.171Z,3.00
2023-05-17T11:00:00.365Z,3.20
2023-05-17T11:05:02.726Z,2.80
2023-05-17T11:10:11.161Z,2.60
2023-05-17T11:15:15.580Z,3.00
2023-05-17T11:20:23.900Z,2.90
2023-05-17T11:25:32.190Z,3.40
2023-05-17T11:30:34.514Z,3.10
2023-05-17T11:35:39.048Z,2.30
2023-05-17T11:40:42.042Z,3.20
2023-05-17T11:45:53.268Z,3.20
2023-05-17T11:50:56.799Z,3.20
2023-05-17T11:56:05.452Z,2.60
2023-05-17T12:01:08.697Z,2.50
2023-05-17T12:06:14.966Z,3.80
2023-05-17T12:11:21.196Z,3.70
2023-05-17T12:16:24.307Z,3.70
2023-05-17T12:21:26.498Z,3.10
2023-05-17T12:26:28.629Z,3.60
2023-05-17T12:31:42.036Z,3.30
2023-05-17T12:36:45.228Z,3.80
2023-05-17T12:41:47.716Z,3.70
2023-05-17T12:46:55.741Z,3.50
2023-05-17T12:52:04.360Z,4.10
2023-05-17T12:57:15.419Z,3.50
2023-05-17T13:02:19.725Z,3.90
2023-05-17T13:07:24.780Z,4.00
2023-05-17T13:12:27.043Z,3.80
2023-05-17T13:17:40.138Z,3.20
2023-05-17T13:22:46.733Z,6.60
2023-05-17T13:27:48.965Z,3.60
2023-05-17T13:32:51.264Z,4.50
2023-05-17T13:37:53.538Z,3.30
2023-05-17T13:42:56.045Z,3.40
2023-05-17T13:47:59.192Z,2.80
2023-05-17T13:53:02.620Z,3.60
2023-05-17T13:58:05.342Z,3.10
2023-05-17T14:03:07.731Z,3.40
2023-05-17T14:08:10.048Z,3.50
2023-05-17T14:13:12.814Z,3.40
2023-05-17T14:18:15.409Z,3.70
2023-05-17T14:23:18.412Z,3.90
2023-05-17T14:28:20.450Z,3.30
2023-05-17T14:33:22.700Z,3.30
2023-05-17T14:38:25.219Z,3.10
2023-05-17T14:43:27.648Z,2.90
2023-05-17T14:48:30.778Z,3.00
2023-05-17T14:53:32.959Z,3.10
2023-05-17T14:58:35.346Z,2.90
2023-05-17T15:03:37.564Z,2.50
2023-05-17T15:08:40.233Z,2.80
2023-05-17T15:13:42.304Z,3.40
2023-05-17T15:18:44.346Z,3.10
2023-05-17T15:23:47.503Z,3.30
2023-05-17T15:28:50.732Z,2.80
2023-05-17T15:33:52.735Z,3.50
2023-05-17T15:38:54.849Z,3.70
2023-05-17T15:43:57.767Z,4.10
2023-05-17T15:49:00.133Z,4.10
2023-05-17T15:54:02.266Z,3.80
2023-05-17T15:59:05.196Z,3.90
2023-05-17T16:04:07.555Z,3.20
2023-05-17T16:09:09.720Z,4.40
2023-05-17T16:14:11.893Z,3.40
2023-05-17T16:19:14.207Z,3.80
2023-05-17T16:24:17.079Z,3.80
2023-05-17T16:29:19.369Z,3.50
2023-05-17T16:34:21.590Z,3.90
2023-05-17T16:39:26.705Z,3.50
2023-05-17T16:44:28.894Z,4.10
2023-05-17T16:49:31.080Z,4.40
2023-05-17T16:54:35.013Z,4.20
2023-05-17T16:59:37.657Z,4.10
2023-05-17T17:04:40.188Z,3.30
2023-05-17T17:09:42.472Z,3.80
2023-05-17T17:14:44.607Z,5.30
2023-05-17T17:19:47.156Z,4.20
2023-05-17T17:24:49.440Z,4.80
2023-05-17T17:29:51.824Z,4.00
2023-05-17T17:34:53.911Z,3.30
2023-05-17T17:39:56.347Z,3.90
2023-05-17T17:44:58.330Z,3.90
2023-05-17T17:50:00.667Z,3.40
2023-05-17T17:55:02.955Z,3.40
2023-05-17T18:00:06.117Z,4.10
2023-05-17T18:05:09.136Z,4.90
2023-05-17T18:10:11.355Z,3.50
2023-05-17T18:15:13.505Z,4.50
2023-05-17T18:20:15.477Z,4.70
2023-05-17T18:25:17.810Z,4.70
2023-05-17T18:30:20.294Z,2.90
2023-05-17T18:35:22.528Z,4.00
2023-05-17T18:47:23.696Z,3.90
2023-05-17T18:52:25.973Z,3.20
2023-05-17T18:57:29.446Z,4.50
2023-05-17T19:02:31.681Z,4.10
2023-05-17T19:07:34.058Z,6.10
2023-05-17T19:12:36.040Z,5.60
2023-05-17T19:17:38.298Z,5.30
2023-05-17T19:22:40.627Z,5.20
2023-05-17T19:27:42.706Z,5.70
2023-05-17T19:32:44.715Z,3.90
2023-05-17T19:37:46.962Z,2.70
2023-05-17T19:42:49.251Z,3.60
2023-05-17T19:47:53.045Z,3.40
2023-05-17T19:52:55.208Z,3.00
2023-05-17T19:57:57.546Z,2.90
2023-05-17T20:02:59.835Z,2.90
2023-05-17T20:08:02.222Z,3.40
2023-05-17T20:13:04.296Z,2.80
2023-05-17T20:18:08.519Z,3.30
2023-05-17T20:23:12.921Z,2.70
2023-05-17T20:38:51.475Z,3.70
2023-05-17T20:43:54.369Z,3.40
2023-05-17T20:48:57.680Z,3.30
2023-05-17T20:54:00.640Z,2.90
2023-05-17T20:59:03.603Z,3.20
2023-05-17T21:04:06.171Z,3.10
2023-05-17T21:09:08.774Z,3.00
2023-05-17T21:14:10.915Z,3.50
2023-05-17T21:19:14.090Z,3.80
2023-05-17T21:24:16.252Z,3.70
2023-05-17T21:29:18.533Z,2.90
2023-05-17T21:34:20.820Z,3.30
2023-05-17T21:39:23.013Z,3.00
2023-05-17T21:44:25.194Z,2.80
2023-05-17T21:49:28.195Z,2.90
2023-05-17T21:54:30.480Z,2.80
2023-05-17T21:59:33.689Z,2.60
2023-05-17T22:04:36.191Z,2.40
2023-05-17T22:09:38.374Z,3.20
2023-05-17T22:14:43.006Z,3.60
2023-05-17T22:19:45.401Z,3.20
2023-05-17T22:24:53.336Z,3.60
2023-05-17T22:29:55.705Z,2.50
2023-05-17T22:34:57.992Z,3.10
2023-05-17T22:40:00.407Z,3.20
2023-05-17T22:45:03.282Z,3.90
2023-05-17T22:50:06.595Z,4.20
2023-05-17T22:55:10.132Z,4.00
2023-05-17T23:00:13.220Z,3.70
2023-05-17T23:05:15.518Z,3.50
2023-05-17T23:10:17.686Z,3.00
2023-05-17T23:15:20.491Z,3.20
2023-05-17T23:20:24.583Z,3.50
2023-05-17T23:25:29.870Z,3.50
2023-05-17T23:30:32.666Z,2.60
2023-05-17T23:35:34.853Z,3.60
2023-05-17T23:40:37.052Z,3.00
2023-05-17T23:45:39.224Z,2.60
2023-05-17T23:50:41.408Z,2.00
2023-05-17T23:55:43.688Z,2.80
